sensor_id;sensor_type;location;lat;lon;timestamp;temperature;humidity
48946;DHT22;34999;50.940;3.998;2023-01-23T00:02:58;1.80;99.90
48946;DHT22;34999;50.940;3.998;2023-01-23T00:05:26;1.80;99.90
48946;DHT22;34999;50.940;3.998;2023-01-23T00:07:55;1.70;99.90
48946;DHT22;34999;50.940;3.998;2023-01-23T00:10:23;1.80;99.90
48946;DHT22;34999;50.940;3.998;2023-01-23T00:12:51;1.70;99.90
48946;DHT22;34999;50.940;3.998;2023-01-23T00:15:21;1.80;99.90
48946;DHT22;34999;50.940;3.998;2023-01-23T00:17:50;1.80;99.90
48946;DHT22;34999;50.940;3.998;2023-01-23T00:20:18;1.80;99.90
48946;DHT22;34999;50.940;3.998;2023-01-23T00:22:47;1.80;99.90
48946;DHT22;34999;50.940;3.998;2023-01-23T00:25:15;1.80;99.90
48946;DHT22;34999;50.940;3.998;2023-01-23T00:27:44;1.80;99.90
48946;DHT22;34999;50.940;3.998;2023-01-23T00:30:12;1.80;99.90
48946;DHT22;34999;50.940;3.998;2023-01-23T00:32:43;1.80;99.90
48946;DHT22;34999;50.940;3.998;2023-01-23T00:35:12;1.80;99.90
48946;DHT22;34999;50.940;3.998;2023-01-23T00:37:40;1.80;99.90
48946;DHT22;34999;50.940;3.998;2023-01-23T00:40:10;1.80;99.90
48946;DHT22;34999;50.940;3.998;2023-01-23T00:42:39;1.80;99.90
48946;DHT22;34999;50.940;3.998;2023-01-23T00:45:08;1.80;99.90
48946;DHT22;34999;50.940;3.998;2023-01-23T00:47:36;1.80;99.90
48946;DHT22;34999;50.940;3.998;2023-01-23T00:50:06;1.80;99.90
48946;DHT22;34999;50.940;3.998;2023-01-23T00:52:35;1.80;99.90
48946;DHT22;34999;50.940;3.998;2023-01-23T00:55:04;1.80;99.90
48946;DHT22;34999;50.940;3.998;2023-01-23T00:57:33;1.80;99.90
48946;DHT22;34999;50.940;3.998;2023-01-23T01:00:02;1.80;99.90
48946;DHT22;34999;50.940;3.998;2023-01-23T01:02:31;1.80;99.90
48946;DHT22;34999;50.940;3.998;2023-01-23T01:04:59;1.80;99.90
48946;DHT22;34999;50.940;3.998;2023-01-23T01:07:29;1.80;99.90
48946;DHT22;34999;50.940;3.998;2023-01-23T01:09:57;1.80;99.90
48946;DHT22;34999;50.940;3.998;2023-01-23T01:12:25;1.80;99.90
48946;DHT22;34999;50.940;3.998;2023-01-23T01:14:54;1.80;99.90
48946;DHT22;34999;50.940;3.998;2023-01-23T01:17:22;1.80;99.90
48946;DHT22;34999;50.940;3.998;2023-01-23T01:19:51;1.80;99.90
48946;DHT22;34999;50.940;3.998;2023-01-23T01:22:19;1.80;99.90
48946;DHT22;34999;50.940;3.998;2023-01-23T01:24:49;1.70;99.90
48946;DHT22;34999;50.940;3.998;2023-01-23T01:27:17;1.70;99.90
48946;DHT22;34999;50.940;3.998;2023-01-23T01:29:45;1.70;99.90
48946;DHT22;34999;50.940;3.998;2023-01-23T01:32:13;1.70;99.90
48946;DHT22;34999;50.940;3.998;2023-01-23T01:34:42;1.70;99.90
48946;DHT22;34999;50.940;3.998;2023-01-23T01:37:10;1.70;99.90
48946;DHT22;34999;50.940;3.998;2023-01-23T01:39:38;1.80;99.90
48946;DHT22;34999;50.940;3.998;2023-01-23T01:42:08;1.80;99.90
48946;DHT22;34999;50.940;3.998;2023-01-23T01:44:52;1.80;99.90
48946;DHT22;34999;50.940;3.998;2023-01-23T01:47:21;1.70;99.90
48946;DHT22;34999;50.940;3.998;2023-01-23T01:49:51;1.70;99.90
48946;DHT22;34999;50.940;3.998;2023-01-23T01:52:22;1.70;99.90
48946;DHT22;34999;50.940;3.998;2023-01-23T01:54:53;1.70;99.90
48946;DHT22;34999;50.940;3.998;2023-01-23T01:57:27;1.60;99.90
48946;DHT22;34999;50.940;3.998;2023-01-23T02:00:00;1.60;99.90
48946;DHT22;34999;50.940;3.998;2023-01-23T02:02:32;1.70;99.90
48946;DHT22;34999;50.940;3.998;2023-01-23T02:05:05;1.60;99.90
48946;DHT22;34999;50.940;3.998;2023-01-23T02:07:37;1.70;99.90
48946;DHT22;34999;50.940;3.998;2023-01-23T02:10:09;1.60;99.90
48946;DHT22;34999;50.940;3.998;2023-01-23T02:12:39;1.70;99.90
48946;DHT22;34999;50.940;3.998;2023-01-23T02:15:08;1.60;99.90
48946;DHT22;34999;50.940;3.998;2023-01-23T02:17:36;1.60;99.90
48946;DHT22;34999;50.940;3.998;2023-01-23T02:20:11;1.70;99.90
48946;DHT22;34999;50.940;3.998;2023-01-23T02:22:44;1.70;99.90
48946;DHT22;34999;50.940;3.998;2023-01-23T02:25:20;1.70;99.90
48946;DHT22;34999;50.940;3.998;2023-01-23T02:27:51;1.70;99.90
48946;DHT22;34999;50.940;3.998;2023-01-23T02:30:20;1.60;99.90
48946;DHT22;34999;50.940;3.998;2023-01-23T02:32:48;1.70;99.90
48946;DHT22;34999;50.940;3.998;2023-01-23T02:35:21;1.70;99.90
48946;DHT22;34999;50.940;3.998;2023-01-23T02:37:54;1.70;99.90
48946;DHT22;34999;50.940;3.998;2023-01-23T02:40:30;1.70;99.90
48946;DHT22;34999;50.940;3.998;2023-01-23T02:43:00;1.70;99.90
48946;DHT22;34999;50.940;3.998;2023-01-23T02:45:30;1.70;99.90
48946;DHT22;34999;50.940;3.998;2023-01-23T02:47:58;1.70;99.90
48946;DHT22;34999;50.940;3.998;2023-01-23T02:50:27;1.70;99.90
48946;DHT22;34999;50.940;3.998;2023-01-23T02:52:56;1.70;99.90
48946;DHT22;34999;50.940;3.998;2023-01-23T02:55:25;1.70;99.90
48946;DHT22;34999;50.940;3.998;2023-01-23T02:57:56;1.80;99.90
48946;DHT22;34999;50.940;3.998;2023-01-23T03:00:51;1.80;99.90
48946;DHT22;34999;50.940;3.998;2023-01-23T03:03:18;1.80;99.90
48946;DHT22;34999;50.940;3.998;2023-01-23T03:05:47;1.80;99.90
48946;DHT22;34999;50.940;3.998;2023-01-23T03:08:16;1.80;99.90
48946;DHT22;34999;50.940;3.998;2023-01-23T03:10:44;1.80;99.90
48946;DHT22;34999;50.940;3.998;2023-01-23T03:13:12;1.80;99.90
48946;DHT22;34999;50.940;3.998;2023-01-23T03:15:42;1.70;99.90
48946;DHT22;34999;50.940;3.998;2023-01-23T03:18:12;1.80;99.90
48946;DHT22;34999;50.940;3.998;2023-01-23T03:20:40;1.70;99.90
48946;DHT22;34999;50.940;3.998;2023-01-23T03:23:09;1.80;99.90
48946;DHT22;34999;50.940;3.998;2023-01-23T03:25:42;1.80;99.90
48946;DHT22;34999;50.940;3.998;2023-01-23T03:28:10;1.80;99.90
48946;DHT22;34999;50.940;3.998;2023-01-23T03:31:00;1.80;99.90
48946;DHT22;34999;50.940;3.998;2023-01-23T03:33:29;1.80;99.90
48946;DHT22;34999;50.940;3.998;2023-01-23T03:35:57;1.80;99.90
48946;DHT22;34999;50.940;3.998;2023-01-23T03:38:25;1.80;99.90
48946;DHT22;34999;50.940;3.998;2023-01-23T03:40:54;1.80;99.90
48946;DHT22;34999;50.940;3.998;2023-01-23T03:43:40;1.80;99.90
48946;DHT22;34999;50.940;3.998;2023-01-23T03:46:08;1.80;99.90
48946;DHT22;34999;50.940;3.998;2023-01-23T03:48:38;1.80;99.90
48946;DHT22;34999;50.940;3.998;2023-01-23T03:51:06;1.80;99.90
48946;DHT22;34999;50.940;3.998;2023-01-23T03:53:35;1.80;99.90
48946;DHT22;34999;50.940;3.998;2023-01-23T03:56:04;1.80;99.90
48946;DHT22;34999;50.940;3.998;2023-01-23T03:58:32;1.80;99.90
48946;DHT22;34999;50.940;3.998;2023-01-23T04:01:04;1.90;99.90
48946;DHT22;34999;50.940;3.998;2023-01-23T04:03:33;1.80;99.90
48946;DHT22;34999;50.940;3.998;2023-01-23T04:06:03;1.80;99.90
48946;DHT22;34999;50.940;3.998;2023-01-23T04:08:32;1.80;99.90
48946;DHT22;34999;50.940;3.998;2023-01-23T04:11:02;1.80;99.90
48946;DHT22;34999;50.940;3.998;2023-01-23T04:13:31;1.80;99.90
48946;DHT22;34999;50.940;3.998;2023-01-23T04:15:59;1.80;99.90
48946;DHT22;34999;50.940;3.998;2023-01-23T04:18:28;1.80;99.90
48946;DHT22;34999;50.940;3.998;2023-01-23T04:20:56;1.80;99.90
48946;DHT22;34999;50.940;3.998;2023-01-23T04:23:26;1.80;99.90
48946;DHT22;34999;50.940;3.998;2023-01-23T04:25:54;1.80;99.90
48946;DHT22;34999;50.940;3.998;2023-01-23T04:28:23;1.80;99.90
48946;DHT22;34999;50.940;3.998;2023-01-23T04:30:51;1.80;99.90
48946;DHT22;34999;50.940;3.998;2023-01-23T04:33:20;1.80;99.90
48946;DHT22;34999;50.940;3.998;2023-01-23T04:35:51;1.80;99.90
48946;DHT22;34999;50.940;3.998;2023-01-23T04:38:20;1.90;99.90
48946;DHT22;34999;50.940;3.998;2023-01-23T04:40:49;1.90;99.90
48946;DHT22;34999;50.940;3.998;2023-01-23T04:43:18;2.00;99.90
48946;DHT22;34999;50.940;3.998;2023-01-23T04:45:49;1.90;99.90
48946;DHT22;34999;50.940;3.998;2023-01-23T04:48:17;1.90;99.90
48946;DHT22;34999;50.940;3.998;2023-01-23T04:50:46;1.90;99.90
48946;DHT22;34999;50.940;3.998;2023-01-23T04:53:14;1.90;99.90
48946;DHT22;34999;50.940;3.998;2023-01-23T04:55:46;1.90;99.90
48946;DHT22;34999;50.940;3.998;2023-01-23T04:58:17;1.80;99.90
48946;DHT22;34999;50.940;3.998;2023-01-23T05:00:46;1.80;99.90
48946;DHT22;34999;50.940;3.998;2023-01-23T05:03:20;1.80;99.90
48946;DHT22;34999;50.940;3.998;2023-01-23T05:05:51;1.90;99.90
48946;DHT22;34999;50.940;3.998;2023-01-23T05:08:19;1.80;99.90
48946;DHT22;34999;50.940;3.998;2023-01-23T05:10:48;1.90;99.90
48946;DHT22;34999;50.940;3.998;2023-01-23T05:13:17;1.90;99.90
48946;DHT22;34999;50.940;3.998;2023-01-23T05:15:45;1.90;99.90
48946;DHT22;34999;50.940;3.998;2023-01-23T05:18:14;1.90;99.90
48946;DHT22;34999;50.940;3.998;2023-01-23T05:20:42;1.90;99.90
48946;DHT22;34999;50.940;3.998;2023-01-23T05:23:10;1.90;99.90
48946;DHT22;34999;50.940;3.998;2023-01-23T05:25:39;1.90;99.90
48946;DHT22;34999;50.940;3.998;2023-01-23T05:28:07;1.90;99.90
48946;DHT22;34999;50.940;3.998;2023-01-23T05:30:39;1.90;99.90
48946;DHT22;34999;50.940;3.998;2023-01-23T05:33:10;1.90;99.90
48946;DHT22;34999;50.940;3.998;2023-01-23T05:35:39;1.80;99.90
48946;DHT22;34999;50.940;3.998;2023-01-23T05:38:08;1.90;99.90
48946;DHT22;34999;50.940;3.998;2023-01-23T05:40:36;1.90;99.90
48946;DHT22;34999;50.940;3.998;2023-01-23T05:43:05;1.90;99.90
48946;DHT22;34999;50.940;3.998;2023-01-23T05:45:33;1.90;99.90
48946;DHT22;34999;50.940;3.998;2023-01-23T05:48:03;1.90;99.90
48946;DHT22;34999;50.940;3.998;2023-01-23T05:50:32;1.90;99.90
48946;DHT22;34999;50.940;3.998;2023-01-23T05:53:00;1.90;99.90
48946;DHT22;34999;50.940;3.998;2023-01-23T05:55:29;1.90;99.90
48946;DHT22;34999;50.940;3.998;2023-01-23T05:57:57;2.00;99.90
48946;DHT22;34999;50.940;3.998;2023-01-23T06:00:25;2.00;99.90
48946;DHT22;34999;50.940;3.998;2023-01-23T06:02:54;1.90;99.90
48946;DHT22;34999;50.940;3.998;2023-01-23T06:05:24;2.00;99.90
48946;DHT22;34999;50.940;3.998;2023-01-23T06:07:52;2.00;99.90
48946;DHT22;34999;50.940;3.998;2023-01-23T06:10:21;2.00;99.90
48946;DHT22;34999;50.940;3.998;2023-01-23T06:12:49;2.00;99.90
48946;DHT22;34999;50.940;3.998;2023-01-23T06:15:19;2.00;99.90
48946;DHT22;34999;50.940;3.998;2023-01-23T06:17:48;2.00;99.90
48946;DHT22;34999;50.940;3.998;2023-01-23T06:20:16;2.00;99.90
48946;DHT22;34999;50.940;3.998;2023-01-23T06:22:46;2.00;99.90
48946;DHT22;34999;50.940;3.998;2023-01-23T06:25:15;2.00;99.90
48946;DHT22;34999;50.940;3.998;2023-01-23T06:27:44;2.00;99.90
48946;DHT22;34999;50.940;3.998;2023-01-23T06:30:12;2.00;99.90
48946;DHT22;34999;50.940;3.998;2023-01-23T06:32:41;2.00;99.90
48946;DHT22;34999;50.940;3.998;2023-01-23T06:35:09;2.00;99.90
48946;DHT22;34999;50.940;3.998;2023-01-23T06:37:38;2.00;99.90
48946;DHT22;34999;50.940;3.998;2023-01-23T06:40:10;2.00;99.90
48946;DHT22;34999;50.940;3.998;2023-01-23T06:42:39;2.00;99.90
48946;DHT22;34999;50.940;3.998;2023-01-23T06:45:09;2.00;99.90
48946;DHT22;34999;50.940;3.998;2023-01-23T06:47:37;2.00;99.90
48946;DHT22;34999;50.940;3.998;2023-01-23T06:50:06;2.00;99.90
48946;DHT22;34999;50.940;3.998;2023-01-23T06:52:35;2.00;99.90
48946;DHT22;34999;50.940;3.998;2023-01-23T06:55:04;2.10;99.90
48946;DHT22;34999;50.940;3.998;2023-01-23T06:57:34;2.10;99.90
48946;DHT22;34999;50.940;3.998;2023-01-23T07:00:03;2.10;99.90
48946;DHT22;34999;50.940;3.998;2023-01-23T07:02:31;2.10;99.90
48946;DHT22;34999;50.940;3.998;2023-01-23T07:05:00;2.10;99.90
48946;DHT22;34999;50.940;3.998;2023-01-23T07:07:28;2.10;99.90
48946;DHT22;34999;50.940;3.998;2023-01-23T07:09:56;2.10;99.90
48946;DHT22;34999;50.940;3.998;2023-01-23T07:12:25;2.10;99.90
48946;DHT22;34999;50.940;3.998;2023-01-23T07:14:54;2.10;99.90
48946;DHT22;34999;50.940;3.998;2023-01-23T07:17:23;2.10;99.90
48946;DHT22;34999;50.940;3.998;2023-01-23T07:19:51;2.10;99.90
48946;DHT22;34999;50.940;3.998;2023-01-23T07:22:21;2.10;99.90
48946;DHT22;34999;50.940;3.998;2023-01-23T07:24:50;2.10;99.90
48946;DHT22;34999;50.940;3.998;2023-01-23T07:27:18;2.10;99.90
48946;DHT22;34999;50.940;3.998;2023-01-23T07:29:46;2.10;99.90
48946;DHT22;34999;50.940;3.998;2023-01-23T07:32:16;2.10;99.90
48946;DHT22;34999;50.940;3.998;2023-01-23T07:34:44;2.00;99.90
48946;DHT22;34999;50.940;3.998;2023-01-23T07:37:13;2.00;99.90
48946;DHT22;34999;50.940;3.998;2023-01-23T07:39:41;2.00;99.90
48946;DHT22;34999;50.940;3.998;2023-01-23T07:42:10;2.10;99.90
48946;DHT22;34999;50.940;3.998;2023-01-23T07:44:38;2.10;99.90
48946;DHT22;34999;50.940;3.998;2023-01-23T07:47:06;2.10;99.90
48946;DHT22;34999;50.940;3.998;2023-01-23T07:49:36;2.10;99.90
48946;DHT22;34999;50.940;3.998;2023-01-23T07:52:04;2.10;99.90
48946;DHT22;34999;50.940;3.998;2023-01-23T07:54:32;2.10;99.90
48946;DHT22;34999;50.940;3.998;2023-01-23T07:57:01;2.10;99.90
48946;DHT22;34999;50.940;3.998;2023-01-23T07:59:29;2.10;99.90
48946;DHT22;34999;50.940;3.998;2023-01-23T08:01:58;2.10;99.90
48946;DHT22;34999;50.940;3.998;2023-01-23T08:04:26;2.20;99.90
48946;DHT22;34999;50.940;3.998;2023-01-23T08:06:56;2.10;99.90
48946;DHT22;34999;50.940;3.998;2023-01-23T08:09:24;2.10;99.90
48946;DHT22;34999;50.940;3.998;2023-01-23T08:11:53;2.10;99.90
48946;DHT22;34999;50.940;3.998;2023-01-23T08:14:21;2.10;99.90
48946;DHT22;34999;50.940;3.998;2023-01-23T08:16:50;2.20;99.90
48946;DHT22;34999;50.940;3.998;2023-01-23T08:19:19;2.20;99.90
48946;DHT22;34999;50.940;3.998;2023-01-23T08:21:47;2.20;99.90
48946;DHT22;34999;50.940;3.998;2023-01-23T08:24:17;2.20;99.90
48946;DHT22;34999;50.940;3.998;2023-01-23T08:26:45;2.20;99.90
48946;DHT22;34999;50.940;3.998;2023-01-23T08:29:13;2.20;99.90
48946;DHT22;34999;50.940;3.998;2023-01-23T08:31:42;2.20;99.90
48946;DHT22;34999;50.940;3.998;2023-01-23T08:34:10;2.20;99.90
48946;DHT22;34999;50.940;3.998;2023-01-23T08:36:38;2.30;99.90
48946;DHT22;34999;50.940;3.998;2023-01-23T08:39:07;2.20;99.90
48946;DHT22;34999;50.940;3.998;2023-01-23T08:41:37;2.30;99.90
48946;DHT22;34999;50.940;3.998;2023-01-23T08:44:05;2.30;99.90
48946;DHT22;34999;50.940;3.998;2023-01-23T08:46:33;2.30;99.90
48946;DHT22;34999;50.940;3.998;2023-01-23T08:49:01;2.30;99.90
48946;DHT22;34999;50.940;3.998;2023-01-23T08:51:31;2.30;99.90
48946;DHT22;34999;50.940;3.998;2023-01-23T08:53:59;2.30;99.90
48946;DHT22;34999;50.940;3.998;2023-01-23T08:56:27;2.30;99.90
48946;DHT22;34999;50.940;3.998;2023-01-23T08:58:57;2.40;99.90
48946;DHT22;34999;50.940;3.998;2023-01-23T09:01:25;2.40;99.90
48946;DHT22;34999;50.940;3.998;2023-01-23T09:03:55;2.40;99.90
48946;DHT22;34999;50.940;3.998;2023-01-23T09:06:23;2.50;99.90
48946;DHT22;34999;50.940;3.998;2023-01-23T09:08:52;2.50;99.90
48946;DHT22;34999;50.940;3.998;2023-01-23T09:11:20;2.50;99.90
48946;DHT22;34999;50.940;3.998;2023-01-23T09:13:49;2.50;99.90
48946;DHT22;34999;50.940;3.998;2023-01-23T09:16:21;2.50;99.90
48946;DHT22;34999;50.940;3.998;2023-01-23T09:18:49;2.60;99.90
48946;DHT22;34999;50.940;3.998;2023-01-23T09:21:17;2.60;99.90
48946;DHT22;34999;50.940;3.998;2023-01-23T09:23:46;2.60;99.90
48946;DHT22;34999;50.940;3.998;2023-01-23T09:26:14;2.70;99.90
48946;DHT22;34999;50.940;3.998;2023-01-23T09:28:45;2.60;99.90
48946;DHT22;34999;50.940;3.998;2023-01-23T09:31:14;2.70;99.90
48946;DHT22;34999;50.940;3.998;2023-01-23T09:33:47;2.70;99.90
48946;DHT22;34999;50.940;3.998;2023-01-23T09:36:16;2.80;99.90
48946;DHT22;34999;50.940;3.998;2023-01-23T09:38:46;2.80;99.90
48946;DHT22;34999;50.940;3.998;2023-01-23T09:41:18;2.80;99.90
48946;DHT22;34999;50.940;3.998;2023-01-23T09:43:55;2.90;99.90
48946;DHT22;34999;50.940;3.998;2023-01-23T09:46:27;2.90;99.90
48946;DHT22;34999;50.940;3.998;2023-01-23T09:49:02;2.80;99.90
48946;DHT22;34999;50.940;3.998;2023-01-23T09:51:48;2.90;99.90
48946;DHT22;34999;50.940;3.998;2023-01-23T09:54:30;2.90;99.90
48946;DHT22;34999;50.940;3.998;2023-01-23T09:57:02;2.90;99.90
48946;DHT22;34999;50.940;3.998;2023-01-23T09:59:35;2.90;99.90
48946;DHT22;34999;50.940;3.998;2023-01-23T10:02:24;3.00;99.90
48946;DHT22;34999;50.940;3.998;2023-01-23T10:04:55;3.00;99.90
48946;DHT22;34999;50.940;3.998;2023-01-23T10:07:38;3.00;99.90
48946;DHT22;34999;50.940;3.998;2023-01-23T10:10:36;3.10;99.90
48946;DHT22;34999;50.940;3.998;2023-01-23T10:13:13;3.10;99.90
48946;DHT22;34999;50.940;3.998;2023-01-23T10:16:02;3.20;99.90
48946;DHT22;34999;50.940;3.998;2023-01-23T10:18:36;3.20;99.90
48946;DHT22;34999;50.940;3.998;2023-01-23T10:21:16;3.20;99.90
48946;DHT22;34999;50.940;3.998;2023-01-23T10:23:57;3.30;99.90
48946;DHT22;34999;50.940;3.998;2023-01-23T10:26:29;3.30;99.90
48946;DHT22;34999;50.940;3.998;2023-01-23T10:29:02;3.40;99.90
48946;DHT22;34999;50.940;3.998;2023-01-23T10:31:37;3.40;99.90
48946;DHT22;34999;50.940;3.998;2023-01-23T10:34:14;3.40;99.90
48946;DHT22;34999;50.940;3.998;2023-01-23T10:36:58;3.50;99.90
48946;DHT22;34999;50.940;3.998;2023-01-23T10:39:36;3.70;99.90
48946;DHT22;34999;50.940;3.998;2023-01-23T10:42:10;3.60;99.90
48946;DHT22;34999;50.940;3.998;2023-01-23T10:44:39;3.60;99.90
48946;DHT22;34999;50.940;3.998;2023-01-23T10:47:17;3.70;99.90
48946;DHT22;34999;50.940;3.998;2023-01-23T10:49:46;3.70;99.90
48946;DHT22;34999;50.940;3.998;2023-01-23T10:52:35;3.70;99.90
48946;DHT22;34999;50.940;3.998;2023-01-23T10:55:05;3.60;99.90
48946;DHT22;34999;50.940;3.998;2023-01-23T10:57:44;3.60;99.90
48946;DHT22;34999;50.940;3.998;2023-01-23T11:00:20;3.70;99.90
48946;DHT22;34999;50.940;3.998;2023-01-23T11:03:32;3.70;99.90
48946;DHT22;34999;50.940;3.998;2023-01-23T11:06:04;3.60;99.90
48946;DHT22;34999;50.940;3.998;2023-01-23T11:08:35;3.60;99.90
48946;DHT22;34999;50.940;3.998;2023-01-23T11:11:19;3.70;99.90
48946;DHT22;34999;50.940;3.998;2023-01-23T11:13:50;3.70;99.90
48946;DHT22;34999;50.940;3.998;2023-01-23T11:16:29;3.70;99.90
48946;DHT22;34999;50.940;3.998;2023-01-23T11:19:08;3.80;99.90
48946;DHT22;34999;50.940;3.998;2023-01-23T11:21:50;3.90;99.90
48946;DHT22;34999;50.940;3.998;2023-01-23T11:24:27;3.80;99.90
48946;DHT22;34999;50.940;3.998;2023-01-23T11:27:17;3.80;99.90
48946;DHT22;34999;50.940;3.998;2023-01-23T11:32:50;3.90;99.90
48946;DHT22;34999;50.940;3.998;2023-01-23T11:35:28;3.90;99.90
48946;DHT22;34999;50.940;3.998;2023-01-23T11:38:03;4.00;99.90
48946;DHT22;34999;50.940;3.998;2023-01-23T11:40:33;4.00;99.90
48946;DHT22;34999;50.940;3.998;2023-01-23T11:43:01;4.00;99.90
48946;DHT22;34999;50.940;3.998;2023-01-23T11:45:36;4.20;99.90
48946;DHT22;34999;50.940;3.998;2023-01-23T11:48:20;4.30;99.90
48946;DHT22;34999;50.940;3.998;2023-01-23T11:50:55;4.20;99.90
48946;DHT22;34999;50.940;3.998;2023-01-23T11:53:32;4.10;99.90
48946;DHT22;34999;50.940;3.998;2023-01-23T11:59:50;4.10;99.90
48946;DHT22;34999;50.940;3.998;2023-01-23T12:05:47;4.30;99.90
48946;DHT22;34999;50.940;3.998;2023-01-23T12:08:25;4.40;99.90
48946;DHT22;34999;50.940;3.998;2023-01-23T12:11:04;4.40;99.90
48946;DHT22;34999;50.940;3.998;2023-01-23T12:14:02;4.30;99.90
48946;DHT22;34999;50.940;3.998;2023-01-23T12:16:43;4.20;99.90
48946;DHT22;34999;50.940;3.998;2023-01-23T12:19:24;4.30;99.90
48946;DHT22;34999;50.940;3.998;2023-01-23T12:22:01;4.30;99.90
48946;DHT22;34999;50.940;3.998;2023-01-23T12:24:42;4.20;99.90
48946;DHT22;34999;50.940;3.998;2023-01-23T12:27:19;4.30;99.90
48946;DHT22;34999;50.940;3.998;2023-01-23T12:30:09;4.30;99.90
48946;DHT22;34999;50.940;3.998;2023-01-23T12:32:51;4.20;99.90
48946;DHT22;34999;50.940;3.998;2023-01-23T12:35:31;4.30;99.90
48946;DHT22;34999;50.940;3.998;2023-01-23T12:38:17;4.40;99.90
48946;DHT22;34999;50.940;3.998;2023-01-23T12:41:05;4.50;99.90
48946;DHT22;34999;50.940;3.998;2023-01-23T12:43:38;4.50;99.90
48946;DHT22;34999;50.940;3.998;2023-01-23T12:46:13;4.50;99.90
48946;DHT22;34999;50.940;3.998;2023-01-23T12:48:45;4.50;99.90
48946;DHT22;34999;50.940;3.998;2023-01-23T12:51:18;4.50;99.90
48946;DHT22;34999;50.940;3.998;2023-01-23T12:53:51;4.50;99.90
48946;DHT22;34999;50.940;3.998;2023-01-23T12:56:26;4.50;99.90
48946;DHT22;34999;50.940;3.998;2023-01-23T12:59:04;4.50;99.90
48946;DHT22;34999;50.940;3.998;2023-01-23T13:01:51;4.60;99.90
48946;DHT22;34999;50.940;3.998;2023-01-23T13:04:34;4.50;99.90
48946;DHT22;34999;50.940;3.998;2023-01-23T13:07:28;4.50;99.90
48946;DHT22;34999;50.940;3.998;2023-01-23T13:10:20;4.40;99.90
48946;DHT22;34999;50.940;3.998;2023-01-23T13:12:53;4.40;99.90
48946;DHT22;34999;50.940;3.998;2023-01-23T13:15:31;4.40;99.90
48946;DHT22;34999;50.940;3.998;2023-01-23T13:18:21;4.30;99.90
48946;DHT22;34999;50.940;3.998;2023-01-23T13:20:56;4.40;99.90
48946;DHT22;34999;50.940;3.998;2023-01-23T13:23:42;4.40;99.90
48946;DHT22;34999;50.940;3.998;2023-01-23T13:26:25;4.40;99.90
48946;DHT22;34999;50.940;3.998;2023-01-23T13:28:58;4.30;99.90
48946;DHT22;34999;50.940;3.998;2023-01-23T13:31:40;4.20;99.90
48946;DHT22;34999;50.940;3.998;2023-01-23T13:34:35;4.20;99.90
48946;DHT22;34999;50.940;3.998;2023-01-23T13:40:15;4.30;99.90
48946;DHT22;34999;50.940;3.998;2023-01-23T13:42:43;4.20;99.90
48946;DHT22;34999;50.940;3.998;2023-01-23T13:45:33;4.20;99.90
48946;DHT22;34999;50.940;3.998;2023-01-23T13:51:42;4.10;99.90
48946;DHT22;34999;50.940;3.998;2023-01-23T13:54:27;4.20;99.90
48946;DHT22;34999;50.940;3.998;2023-01-23T13:57:27;4.10;99.90
48946;DHT22;34999;50.940;3.998;2023-01-23T14:00:17;4.10;99.90
48946;DHT22;34999;50.940;3.998;2023-01-23T14:03:21;4.00;99.90
48946;DHT22;34999;50.940;3.998;2023-01-23T14:06:30;4.00;99.90
48946;DHT22;34999;50.940;3.998;2023-01-23T14:09:23;4.10;99.90
48946;DHT22;34999;50.940;3.998;2023-01-23T14:12:06;4.10;99.90
48946;DHT22;34999;50.940;3.998;2023-01-23T14:14:48;4.00;99.90
48946;DHT22;34999;50.940;3.998;2023-01-23T14:17:48;4.10;99.90
48946;DHT22;34999;50.940;3.998;2023-01-23T14:20:32;4.00;99.90
48946;DHT22;34999;50.940;3.998;2023-01-23T14:23:26;4.00;99.90
48946;DHT22;34999;50.940;3.998;2023-01-23T14:25:57;4.00;99.90
48946;DHT22;34999;50.940;3.998;2023-01-23T14:28:25;4.00;99.90
48946;DHT22;34999;50.940;3.998;2023-01-23T14:30:56;4.00;99.90
48946;DHT22;34999;50.940;3.998;2023-01-23T14:33:26;4.00;99.90
48946;DHT22;34999;50.940;3.998;2023-01-23T14:35:54;4.00;99.90
48946;DHT22;34999;50.940;3.998;2023-01-23T14:38:29;4.00;99.90
48946;DHT22;34999;50.940;3.998;2023-01-23T14:41:04;3.90;99.90
48946;DHT22;34999;50.940;3.998;2023-01-23T14:43:34;3.90;99.90
48946;DHT22;34999;50.940;3.998;2023-01-23T14:46:05;3.90;99.90
48946;DHT22;34999;50.940;3.998;2023-01-23T14:48:37;3.90;99.90
48946;DHT22;34999;50.940;3.998;2023-01-23T14:51:16;3.90;99.90
48946;DHT22;34999;50.940;3.998;2023-01-23T14:53:56;4.00;99.90
48946;DHT22;34999;50.940;3.998;2023-01-23T14:56:29;4.00;99.90
48946;DHT22;34999;50.940;3.998;2023-01-23T14:59:00;4.00;99.90
48946;DHT22;34999;50.940;3.998;2023-01-23T15:01:30;4.00;99.90
48946;DHT22;34999;50.940;3.998;2023-01-23T15:04:04;4.00;99.90
48946;DHT22;34999;50.940;3.998;2023-01-23T15:06:33;3.90;99.90
48946;DHT22;34999;50.940;3.998;2023-01-23T15:09:11;4.00;99.90
48946;DHT22;34999;50.940;3.998;2023-01-23T15:11:43;4.00;99.90
48946;DHT22;34999;50.940;3.998;2023-01-23T15:14:22;3.90;99.90
48946;DHT22;34999;50.940;3.998;2023-01-23T15:16:59;3.90;99.90
48946;DHT22;34999;50.940;3.998;2023-01-23T15:19:28;3.80;99.90
48946;DHT22;34999;50.940;3.998;2023-01-23T15:22:06;3.80;99.90
48946;DHT22;34999;50.940;3.998;2023-01-23T15:24:35;3.80;99.90
48946;DHT22;34999;50.940;3.998;2023-01-23T15:27:25;3.80;99.90
48946;DHT22;34999;50.940;3.998;2023-01-23T15:30:28;3.80;99.90
48946;DHT22;34999;50.940;3.998;2023-01-23T15:32:57;3.80;99.90
48946;DHT22;34999;50.940;3.998;2023-01-23T15:35:32;3.70;99.90
48946;DHT22;34999;50.940;3.998;2023-01-23T15:38:01;3.70;99.90
48946;DHT22;34999;50.940;3.998;2023-01-23T15:40:33;3.70;99.90
48946;DHT22;34999;50.940;3.998;2023-01-23T15:43:05;3.70;99.90
48946;DHT22;34999;50.940;3.998;2023-01-23T15:45:34;3.70;99.90
48946;DHT22;34999;50.940;3.998;2023-01-23T15:48:05;3.70;99.90
48946;DHT22;34999;50.940;3.998;2023-01-23T15:50:33;3.70;99.90
48946;DHT22;34999;50.940;3.998;2023-01-23T15:53:02;3.70;99.90
48946;DHT22;34999;50.940;3.998;2023-01-23T15:55:30;3.70;99.90
48946;DHT22;34999;50.940;3.998;2023-01-23T15:57:58;3.60;99.90
48946;DHT22;34999;50.940;3.998;2023-01-23T16:00:30;3.60;99.90
48946;DHT22;34999;50.940;3.998;2023-01-23T16:02:59;3.70;99.90
48946;DHT22;34999;50.940;3.998;2023-01-23T16:05:29;3.70;99.90
48946;DHT22;34999;50.940;3.998;2023-01-23T16:07:58;3.70;99.90
48946;DHT22;34999;50.940;3.998;2023-01-23T16:10:33;3.70;99.90
48946;DHT22;34999;50.940;3.998;2023-01-23T16:13:03;3.60;99.90
48946;DHT22;34999;50.940;3.998;2023-01-23T16:15:35;3.60;99.90
48946;DHT22;34999;50.940;3.998;2023-01-23T16:18:05;3.60;99.90
48946;DHT22;34999;50.940;3.998;2023-01-23T16:20:38;3.60;99.90
48946;DHT22;34999;50.940;3.998;2023-01-23T16:23:12;3.60;99.90
48946;DHT22;34999;50.940;3.998;2023-01-23T16:25:43;3.60;99.90
48946;DHT22;34999;50.940;3.998;2023-01-23T16:28:14;3.60;99.90
48946;DHT22;34999;50.940;3.998;2023-01-23T16:30:45;3.60;99.90
48946;DHT22;34999;50.940;3.998;2023-01-23T16:33:16;3.60;99.90
48946;DHT22;34999;50.940;3.998;2023-01-23T16:35:45;3.60;99.90
48946;DHT22;34999;50.940;3.998;2023-01-23T16:38:19;3.60;99.90